首页
METAR-TAF:

METAR-TAF

机场 :

Cedar City, 犹他州, 美国

纬度: 37-42-24N, 经度: 113-05-48W, 海拔: 1715米

当前天气观测

该预报发布于40分钟前的23:53 UTC
风速8节,风向西南,有时为22节阵风
温度 33°C
湿度 8%
气压 1019 hPa
能見度: 16.1公里
天空无云

METAR: KCDC 122353Z AUTO 23008G22KT 10SM CLR 33/M06 A3009 RMK AO2 SLP099 T03331061 10350 20322 58012

时间: 18:33 (00:33 UTC)

预报

该预报发布于1小时和13分钟前的23:20 UTC
预报有效从13日的 00点(UTC)到 13日的 24点(UTC)
风速14节,风向西南,有时为24节阵风
能見度: 10公里
天空无云
从 13日的 0300点(UTC)
风速7节,风向
能見度: 10公里
天空无云
从 13日的 1700点(UTC)
风速18节,风向西南,有时为28节阵风
能見度: 10公里
少量云层高于25000英尺

TAF: KCDC 122320Z 1300/1324 22014G24KT P6SM SKC FM130300 18007KT P6SM SKC FM131700 22018G28KT P6SM FEW250

超过4000个机场的气象观测和天气预报(METAR&TAF报告)。

可查询的气象台以黄色和红色小点在地图上表示。

将鼠标移到小点上方,可查看气象台名称。

然后点击查看天气观测和预报。

如需切换地图:点击带黑十字的绿色按钮放大地图;点击带横线的绿色按钮缩小地图;或者点击绿色箭头查看邻近地区的地图。


METAR-TAF: